createdAt,value
2022-09-22T00:02:49.329Z,96997.00
2022-09-22T00:07:00.327Z,96993.00
2022-09-22T00:11:12.391Z,96990.00
2022-09-22T00:15:15.670Z,97001.00
2022-09-22T00:19:27.305Z,96997.00
2022-09-22T00:23:39.313Z,97009.00
2022-09-22T00:27:49.321Z,97004.00
2022-09-22T00:32:02.421Z,97003.00
2022-09-22T00:36:24.386Z,97000.00
2022-09-22T00:40:35.382Z,96996.00
2022-09-22T00:44:48.303Z,96993.00
2022-09-22T00:48:56.475Z,96993.00
2022-09-22T00:53:10.354Z,96990.00
2022-09-22T00:57:25.337Z,96992.00
2022-09-22T01:01:28.431Z,96986.00
2022-09-22T01:05:40.352Z,96980.00
2022-09-22T01:09:50.337Z,96983.00
2022-09-22T01:14:09.311Z,96978.00
2022-09-22T01:18:27.298Z,96969.00
2022-09-22T01:22:53.309Z,96973.00
2022-09-22T01:28:02.310Z,96974.00
2022-09-22T01:32:28.332Z,96971.00
2022-09-22T01:36:51.321Z,96974.00
2022-09-22T01:41:06.324Z,96969.00
2022-09-22T01:45:11.713Z,96969.00
2022-09-22T01:49:25.307Z,96979.00
2022-09-22T01:53:40.324Z,96974.00
2022-09-22T01:57:59.309Z,96969.00
2022-09-22T02:02:12.494Z,96968.00
2022-09-22T02:06:28.305Z,96972.00
2022-09-22T02:10:43.422Z,96971.00
2022-09-22T02:14:53.305Z,96957.00
2022-09-22T02:19:13.123Z,96950.00
2022-09-22T02:23:25.350Z,96947.00
2022-09-22T02:27:43.434Z,96948.00
2022-09-22T02:31:53.505Z,96954.00
2022-09-22T02:36:16.459Z,96947.00
2022-09-22T02:40:35.364Z,96944.00
2022-09-22T02:44:53.313Z,96936.00
2022-09-22T02:49:00.075Z,96946.00
2022-09-22T02:53:12.551Z,96947.00
2022-09-22T02:57:16.962Z,96952.00
2022-09-22T03:01:26.382Z,96944.00
2022-09-22T03:05:36.305Z,96936.00
2022-09-22T03:09:39.523Z,96933.00
2022-09-22T03:13:50.372Z,96930.00
2022-09-22T03:18:00.344Z,96934.00
2022-09-22T03:22:10.292Z,96921.00
2022-09-22T03:26:20.297Z,96917.00
2022-09-22T03:30:24.687Z,96923.00
2022-09-22T03:34:34.302Z,96923.00
2022-09-22T03:38:44.300Z,96932.00
2022-09-22T03:42:47.401Z,96923.00
2022-09-22T03:46:58.301Z,96928.00
2022-09-22T03:51:08.307Z,96923.00
2022-09-22T03:55:18.310Z,96921.00
2022-09-22T03:59:28.607Z,96923.00
2022-09-22T04:03:33.043Z,96924.00
2022-09-22T04:07:43.298Z,96930.00
2022-09-22T04:11:53.305Z,96921.00
2022-09-22T04:16:03.308Z,96929.00
2022-09-22T04:20:16.286Z,96927.00
2022-09-22T04:24:19.726Z,96921.00
2022-09-22T04:28:29.316Z,96916.00
2022-09-22T04:32:39.311Z,96920.00
2022-09-22T04:36:57.310Z,96926.00
2022-09-22T04:41:08.309Z,96931.00
2022-09-22T04:45:18.290Z,96929.00
2022-09-22T04:49:21.310Z,96925.00
2022-09-22T04:53:32.316Z,96929.00
2022-09-22T04:57:42.300Z,96929.00
2022-09-22T05:01:52.326Z,96936.00
2022-09-22T05:05:55.618Z,96934.00
2022-09-22T05:10:06.363Z,96933.00
2022-09-22T05:14:09.523Z,96933.00
2022-09-22T05:18:19.330Z,96935.00
2022-09-22T05:22:29.310Z,96933.00
2022-09-22T05:26:41.305Z,96932.00
2022-09-22T05:30:44.352Z,96932.00
2022-09-22T05:34:54.326Z,96938.00
2022-09-22T05:39:04.315Z,96933.00
2022-09-22T05:43:15.299Z,96937.00
2022-09-22T05:47:18.300Z,96949.00
2022-09-22T05:51:28.286Z,96946.00
2022-09-22T05:55:38.331Z,96947.00
2022-09-22T05:59:49.353Z,96951.00
2022-09-22T06:03:59.280Z,96949.00
2022-09-22T06:08:10.351Z,96955.00
2022-09-22T06:12:13.644Z,96946.00
2022-09-22T06:16:24.368Z,96951.00
2022-09-22T06:20:34.298Z,96953.00
2022-09-22T06:24:37.339Z,96954.00
2022-09-22T06:28:47.346Z,96945.00
2022-09-22T06:33:01.555Z,96959.00
2022-09-22T06:37:17.386Z,96958.00
2022-09-22T06:41:27.294Z,96956.00
2022-09-22T06:45:38.448Z,96963.00
2022-09-22T06:49:49.301Z,96960.00
2022-09-22T06:53:59.332Z,96963.00
2022-09-22T06:58:03.132Z,96967.00
2022-09-22T07:02:14.353Z,96966.00
2022-09-22T07:06:25.713Z,96967.00
2022-09-22T07:10:29.271Z,96967.00
2022-09-22T07:14:39.485Z,96970.00
2022-09-22T07:18:50.307Z,96971.00
2022-09-22T07:23:07.318Z,96968.00
2022-09-22T07:27:11.150Z,96976.00
2022-09-22T07:31:28.405Z,96971.00
2022-09-22T07:35:38.284Z,96973.00
2022-09-22T07:39:52.291Z,96968.00
2022-09-22T07:44:25.299Z,96963.00
2022-09-22T07:48:42.889Z,96973.00
2022-09-22T07:52:59.290Z,96969.00
2022-09-22T07:57:11.086Z,96975.00
2022-09-22T08:01:21.297Z,96975.00
2022-09-22T08:05:32.302Z,96980.00
2022-09-22T08:09:36.047Z,96982.00
2022-09-22T08:13:47.320Z,96975.00
2022-09-22T08:17:57.300Z,96980.00
2022-09-22T08:22:07.315Z,96981.00
2022-09-22T08:26:17.298Z,96982.00
2022-09-22T08:30:28.301Z,96978.00
2022-09-22T08:34:37.838Z,96991.00
2022-09-22T08:38:47.306Z,96983.00
2022-09-22T08:42:57.301Z,96977.00
2022-09-22T08:47:10.296Z,96978.00
2022-09-22T08:51:35.872Z,96977.00
2022-09-22T08:55:50.316Z,96983.00
2022-09-22T09:00:07.293Z,96979.00
2022-09-22T09:04:51.706Z,96976.00
2022-09-22T09:09:37.317Z,96982.00
2022-09-22T09:13:57.346Z,96966.00
2022-09-22T09:18:07.061Z,96984.00
2022-09-22T09:22:25.343Z,96975.00
2022-09-22T09:26:36.422Z,96981.00
2022-09-22T09:30:52.411Z,96974.00
2022-09-22T09:35:09.575Z,96969.00
2022-09-22T09:39:23.344Z,96977.00
2022-09-22T09:43:36.334Z,96981.00
2022-09-22T09:48:11.349Z,96983.00
2022-09-22T09:52:22.298Z,96971.00
2022-09-22T09:56:35.302Z,96972.00
2022-09-22T10:01:04.330Z,96971.00
2022-09-22T10:05:25.305Z,96967.00
2022-09-22T10:09:37.306Z,96969.00
2022-09-22T10:13:50.316Z,96971.00
2022-09-22T10:18:00.304Z,96962.00
2022-09-22T10:22:36.557Z,96970.00
2022-09-22T10:27:05.231Z,96967.00
2022-09-22T10:31:27.689Z,96961.00
2022-09-22T10:35:44.314Z,96959.00
2022-09-22T10:39:56.313Z,96962.00
2022-09-22T10:44:34.641Z,96954.00
2022-09-22T10:48:42.218Z,96952.00
2022-09-22T10:53:01.336Z,96951.00
2022-09-22T10:57:16.321Z,96956.00
2022-09-22T11:01:34.441Z,96951.00
2022-09-22T11:06:18.315Z,96946.00
2022-09-22T11:11:00.323Z,96942.00
2022-09-22T11:15:16.349Z,96954.00
2022-09-22T11:19:44.328Z,96940.00
2022-09-22T11:24:19.360Z,96939.00
2022-09-22T11:28:52.508Z,96945.00
2022-09-22T11:33:40.326Z,96943.00
2022-09-22T11:38:08.335Z,96932.00
2022-09-22T11:42:28.338Z,96927.00
2022-09-22T11:46:49.316Z,96925.00
2022-09-22T11:51:03.846Z,96918.00
2022-09-22T11:55:19.617Z,96926.00
2022-09-22T11:59:40.329Z,96924.00
2022-09-22T12:03:48.401Z,96916.00
2022-09-22T12:08:03.317Z,96905.00
2022-09-22T12:12:12.922Z,96912.00
2022-09-22T12:16:31.354Z,96911.00
2022-09-22T12:20:46.714Z,96906.00
2022-09-22T12:24:57.328Z,96904.00
2022-09-22T12:29:02.078Z,96892.00
2022-09-22T12:33:13.337Z,96893.00
2022-09-22T12:37:27.778Z,96888.00
2022-09-22T12:41:38.319Z,96891.00
2022-09-22T12:45:44.542Z,96890.00
2022-09-22T12:49:55.003Z,96887.00
2022-09-22T12:54:29.281Z,96890.00
2022-09-22T12:58:50.338Z,96880.00
2022-09-22T13:02:58.898Z,96874.00
2022-09-22T13:07:10.335Z,96874.00
2022-09-22T13:11:13.415Z,96871.00
2022-09-22T13:15:21.121Z,96870.00
2022-09-22T13:19:24.169Z,96863.00
2022-09-22T13:23:28.684Z,96862.00
2022-09-22T13:27:38.322Z,96859.00
2022-09-22T13:31:44.184Z,96865.00
2022-09-22T13:36:03.882Z,96857.00
2022-09-22T13:40:11.841Z,96859.00
2022-09-22T13:44:16.493Z,96862.00
2022-09-22T13:48:20.315Z,96853.00
2022-09-22T13:52:27.435Z,96857.00
2022-09-22T13:56:32.806Z,96843.00
2022-09-22T14:01:08.694Z,96845.00
2022-09-22T14:05:16.361Z,96838.00
2022-09-22T14:09:19.529Z,96832.00
2022-09-22T14:13:40.947Z,96833.00
2022-09-22T14:17:44.951Z,96831.00
2022-09-22T14:21:51.869Z,96823.00
2022-09-22T14:26:02.329Z,96819.00
2022-09-22T14:30:15.613Z,96819.00
2022-09-22T14:34:31.352Z,96814.00
2022-09-22T14:38:41.966Z,96808.00
2022-09-22T14:42:57.555Z,96805.00
2022-09-22T14:47:10.064Z,96804.00
2022-09-22T14:51:27.462Z,96809.00
2022-09-22T14:55:36.821Z,96799.00
2022-09-22T15:00:04.368Z,96803.00
2022-09-22T15:04:15.463Z,96799.00
2022-09-22T15:08:22.189Z,96806.00
2022-09-22T15:12:39.926Z,96801.00
2022-09-22T15:16:44.011Z,96797.00
2022-09-22T15:20:50.412Z,96795.00
2022-09-22T15:24:53.533Z,96801.00
2022-09-22T15:29:05.269Z,96794.00
2022-09-22T15:33:10.108Z,96796.00
2022-09-22T15:37:32.213Z,96796.00
2022-09-22T15:41:35.620Z,96801.00
2022-09-22T15:45:39.404Z,96797.00
2022-09-22T15:49:43.734Z,96793.00
2022-09-22T15:53:48.453Z,96794.00
2022-09-22T15:57:54.904Z,96789.00
2022-09-22T16:01:59.479Z,96792.00
2022-09-22T16:06:06.935Z,96784.00
2022-09-22T16:10:15.235Z,96788.00
2022-09-22T16:14:18.460Z,96783.00
2022-09-22T16:18:21.695Z,96777.00
2022-09-22T16:22:33.456Z,96777.00
2022-09-22T16:26:44.721Z,96778.00
2022-09-22T16:30:48.057Z,96783.00
2022-09-22T16:34:58.604Z,96769.00
2022-09-22T16:39:02.587Z,96771.00
2022-09-22T16:43:09.191Z,96774.00
2022-09-22T16:47:12.806Z,96783.00
2022-09-22T16:51:16.394Z,96773.00
2022-09-22T16:55:26.370Z,96776.00
2022-09-22T16:59:30.972Z,96775.00
2022-09-22T17:03:33.957Z,96773.00
2022-09-22T17:07:37.205Z,96774.00
2022-09-22T17:11:44.352Z,96771.00
2022-09-22T17:15:49.428Z,96762.00
2022-09-22T17:19:52.537Z,96777.00
2022-09-22T17:24:00.464Z,96765.00
2022-09-22T17:28:03.830Z,96763.00
2022-09-22T17:32:15.385Z,96763.00
2022-09-22T17:36:33.391Z,96765.00
2022-09-22T17:40:36.708Z,96766.00
2022-09-22T17:44:39.825Z,96765.00
2022-09-22T17:49:01.768Z,96763.00
2022-09-22T17:53:22.451Z,96764.00
2022-09-22T17:57:27.369Z,96766.00
2022-09-22T18:01:30.431Z,96766.00
2022-09-22T18:05:45.379Z,96770.00
2022-09-22T18:09:50.561Z,96771.00
2022-09-22T18:13:56.278Z,96767.00
2022-09-22T18:18:05.371Z,96775.00
2022-09-22T18:22:14.221Z,96774.00
2022-09-22T18:26:18.090Z,96775.00
2022-09-22T18:30:27.365Z,96777.00
2022-09-22T18:34:31.875Z,96782.00
2022-09-22T18:38:42.379Z,96786.00
2022-09-22T18:42:46.031Z,96787.00
2022-09-22T18:46:49.417Z,96792.00
2022-09-22T18:51:00.357Z,96786.00
2022-09-22T18:55:09.435Z,96781.00
2022-09-22T18:59:15.362Z,96790.00
2022-09-22T19:03:25.371Z,96793.00
2022-09-22T19:07:43.881Z,96787.00
2022-09-22T19:11:57.370Z,96786.00
2022-09-22T19:16:00.526Z,96788.00
2022-09-22T19:20:06.744Z,96799.00
2022-09-22T19:24:11.016Z,96789.00
2022-09-22T19:28:15.650Z,96782.00
2022-09-22T19:32:18.779Z,96781.00
2022-09-22T19:36:34.372Z,96780.00
2022-09-22T19:40:37.575Z,96784.00
2022-09-22T19:44:42.208Z,96774.00
2022-09-22T19:48:45.278Z,96770.00
2022-09-22T19:52:55.373Z,96761.00
2022-09-22T19:56:59.239Z,96760.00
2022-09-22T20:01:03.686Z,96755.00
2022-09-22T20:05:18.568Z,96762.00
2022-09-22T20:09:21.859Z,96761.00
2022-09-22T20:18:15.035Z,96767.00
2022-09-22T20:22:31.559Z,96763.00
2022-09-22T20:26:35.126Z,96763.00
2022-09-22T20:30:45.504Z,96759.00
2022-09-22T20:34:50.336Z,96759.00
2022-09-22T20:39:00.404Z,96759.00
2022-09-22T20:43:05.556Z,96757.00
2022-09-22T20:47:20.372Z,96755.00
2022-09-22T20:51:25.678Z,96748.00
2022-09-22T20:55:35.366Z,96756.00
2022-09-22T20:59:39.055Z,96754.00
2022-09-22T21:03:49.378Z,96756.00
2022-09-22T21:08:14.077Z,96757.00
2022-09-22T21:12:17.101Z,96754.00
2022-09-22T21:16:20.248Z,96756.00
2022-09-22T21:20:30.372Z,96751.00
2022-09-22T21:24:35.013Z,96745.00
2022-09-22T21:28:38.355Z,96746.00
2022-09-22T21:32:41.424Z,96749.00
2022-09-22T21:36:45.603Z,96748.00
2022-09-22T21:40:57.442Z,96742.00
2022-09-22T21:45:07.367Z,96745.00
2022-09-22T21:49:11.503Z,96734.00
2022-09-22T21:53:22.375Z,96745.00
2022-09-22T21:57:27.017Z,96736.00
2022-09-22T22:01:32.469Z,96728.00
2022-09-22T22:05:42.355Z,96742.00
2022-09-22T22:09:45.386Z,96729.00
2022-09-22T22:13:58.425Z,96733.00
2022-09-22T22:18:01.430Z,96732.00
2022-09-22T22:22:04.780Z,96730.00
2022-09-22T22:26:12.048Z,96724.00
2022-09-22T22:30:19.163Z,96717.00
2022-09-22T22:34:25.644Z,96721.00
2022-09-22T22:38:35.603Z,96722.00
2022-09-22T22:42:38.688Z,96715.00
2022-09-22T22:46:43.273Z,96715.00
2022-09-22T22:50:46.404Z,96716.00
2022-09-22T22:54:49.451Z,96710.00
2022-09-22T22:58:53.260Z,96714.00
2022-09-22T23:03:04.384Z,96713.00
2022-09-22T23:07:07.532Z,96721.00
2022-09-22T23:11:19.368Z,96715.00
2022-09-22T23:15:22.370Z,96708.00
2022-09-22T23:19:26.866Z,96710.00
2022-09-22T23:23:30.119Z,96713.00
2022-09-22T23:27:33.171Z,96703.00
2022-09-22T23:31:36.167Z,96710.00
2022-09-22T23:35:41.491Z,96701.00
2022-09-22T23:39:44.597Z,96703.00
2022-09-22T23:43:47.671Z,96706.00
2022-09-22T23:47:50.728Z,96705.00
2022-09-22T23:51:55.177Z,96694.00
2022-09-22T23:55:58.274Z,96689.00
